createdAt,value
2023-02-09T00:01:29.846Z,-0.72
2023-02-09T00:03:58.910Z,-0.80
2023-02-09T00:06:26.486Z,-0.69
2023-02-09T00:08:53.463Z,-0.67
2023-02-09T00:11:43.075Z,-0.71
2023-02-09T00:14:10.991Z,-0.73
2023-02-09T00:16:37.552Z,-0.71
2023-02-09T00:19:04.333Z,-0.83
2023-02-09T00:21:30.973Z,-0.96
2023-02-09T00:23:58.616Z,-1.04
2023-02-09T00:26:25.511Z,-1.13
2023-02-09T00:31:30.625Z,-1.23
2023-02-09T00:33:57.196Z,-1.38
2023-02-09T00:36:23.756Z,-1.49
2023-02-09T00:38:50.267Z,-1.54
2023-02-09T00:41:17.317Z,-1.68
2023-02-09T00:43:44.121Z,-1.63
2023-02-09T00:46:10.674Z,-1.80
2023-02-09T00:48:37.375Z,-1.94
2023-02-09T00:51:04.005Z,-1.87
2023-02-09T00:53:30.566Z,-1.71
2023-02-09T00:55:57.079Z,-1.69
2023-02-09T00:58:23.726Z,-1.83
2023-02-09T01:00:50.337Z,-1.62
2023-02-09T01:05:49.574Z,-1.66
2023-02-09T01:08:16.125Z,-1.50
2023-02-09T01:10:43.158Z,-1.80
2023-02-09T01:13:09.982Z,-1.78
2023-02-09T01:15:40.089Z,-1.84
2023-02-09T01:18:07.760Z,-1.75
2023-02-09T01:20:34.469Z,-1.91
2023-02-09T01:23:00.998Z,-2.11
2023-02-09T01:25:27.534Z,-2.16
2023-02-09T01:27:54.131Z,-2.29
2023-02-09T01:30:20.698Z,-2.27
2023-02-09T01:32:47.229Z,-2.42
2023-02-09T01:35:13.728Z,-2.53
2023-02-09T01:37:40.310Z,-2.68
2023-02-09T01:40:07.943Z,-2.74
2023-02-09T01:42:34.714Z,-2.67
2023-02-09T01:45:23.188Z,-2.88
2023-02-09T01:47:57.101Z,-2.63
2023-02-09T01:50:24.958Z,-2.67
2023-02-09T01:52:51.611Z,-2.37
2023-02-09T01:55:22.674Z,-2.14
2023-02-09T01:57:56.344Z,-1.94
2023-02-09T02:00:23.048Z,-1.79
2023-02-09T02:03:04.127Z,-1.74
2023-02-09T02:05:34.086Z,-1.87
2023-02-09T02:08:14.739Z,-1.89
2023-02-09T02:10:41.408Z,-2.06
2023-02-09T02:13:08.142Z,-2.14
2023-02-09T02:15:48.355Z,-2.16
2023-02-09T02:18:40.535Z,-2.17
2023-02-09T02:21:53.376Z,-2.03
2023-02-09T02:24:25.834Z,-2.06
2023-02-09T02:30:06.091Z,-2.06
2023-02-09T02:32:59.742Z,-2.09
2023-02-09T02:35:52.183Z,-2.20
2023-02-09T02:38:34.559Z,-2.09
2023-02-09T02:41:20.970Z,-2.12
2023-02-09T02:44:09.770Z,-2.00
2023-02-09T02:46:44.232Z,-2.05
2023-02-09T02:49:33.553Z,-2.18
2023-02-09T02:52:06.678Z,-1.91
2023-02-09T02:54:39.387Z,-2.24
2023-02-09T02:57:12.339Z,-2.18
2023-02-09T02:59:47.215Z,-2.39
2023-02-09T03:02:20.211Z,-2.42
2023-02-09T03:04:52.804Z,-2.49
2023-02-09T03:07:20.173Z,-2.75
2023-02-09T03:09:55.354Z,-2.88
2023-02-09T03:12:39.399Z,-2.82
2023-02-09T03:18:23.475Z,-3.12
2023-02-09T03:20:52.972Z,-3.07
2023-02-09T03:23:38.830Z,-3.36
2023-02-09T03:26:15.445Z,-3.52
2023-02-09T03:28:43.443Z,-3.71
2023-02-09T03:31:10.733Z,-3.75
2023-02-09T03:33:38.987Z,-3.73
2023-02-09T03:36:15.395Z,-3.57
2023-02-09T03:38:41.910Z,-3.64
2023-02-09T03:44:00.779Z,-3.49
2023-02-09T03:46:27.343Z,-3.50
2023-02-09T03:48:53.879Z,-3.37
2023-02-09T03:51:20.414Z,-3.27
2023-02-09T03:53:47.305Z,-3.48
2023-02-09T03:56:13.952Z,-3.49
2023-02-09T03:58:40.468Z,-3.21
2023-02-09T04:01:09.485Z,-2.99
2023-02-09T04:03:37.432Z,-2.92
2023-02-09T04:06:04.406Z,-2.88
2023-02-09T04:08:31.037Z,-3.00
2023-02-09T04:10:57.902Z,-3.04
2023-02-09T04:13:25.305Z,-3.11
2023-02-09T04:15:52.690Z,-3.20
2023-02-09T04:18:19.857Z,-3.12
2023-02-09T04:23:24.718Z,-3.21
2023-02-09T04:25:51.214Z,-3.08
2023-02-09T04:28:17.855Z,-3.14
2023-02-09T04:30:44.623Z,-3.11
2023-02-09T04:33:11.422Z,-3.23
2023-02-09T04:35:38.049Z,-3.17
2023-02-09T04:38:04.646Z,-3.16
2023-02-09T04:40:31.161Z,-3.27
2023-02-09T04:42:57.656Z,-3.05
2023-02-09T04:45:24.218Z,-3.18
2023-02-09T04:47:50.713Z,-3.22
2023-02-09T04:50:17.576Z,-3.07
2023-02-09T04:52:44.093Z,-3.13
2023-02-09T04:55:10.626Z,-3.40
2023-02-09T04:57:55.715Z,-3.57
2023-02-09T05:00:22.349Z,-3.12
2023-02-09T05:02:48.999Z,-3.12
2023-02-09T05:05:15.567Z,-3.16
2023-02-09T05:07:42.126Z,-3.11
2023-02-09T05:10:09.055Z,-3.17
2023-02-09T05:12:35.612Z,-2.99
2023-02-09T05:15:02.124Z,-2.98
2023-02-09T05:17:28.644Z,-3.01
2023-02-09T05:19:55.176Z,-3.19
2023-02-09T05:22:21.725Z,-3.09
2023-02-09T05:24:48.259Z,-3.19
2023-02-09T05:27:14.966Z,-3.33
2023-02-09T05:29:41.534Z,-3.33
2023-02-09T05:32:08.151Z,-3.47
2023-02-09T05:34:34.755Z,-3.48
2023-02-09T05:37:01.316Z,-3.51
2023-02-09T05:39:27.939Z,-3.53
2023-02-09T05:42:13.498Z,-3.58
2023-02-09T05:44:40.039Z,-3.49
2023-02-09T05:47:06.804Z,-3.32
2023-02-09T05:49:34.436Z,-3.40
2023-02-09T05:52:00.989Z,-3.28
2023-02-09T05:54:27.495Z,-3.44
2023-02-09T05:56:54.046Z,-3.34
2023-02-09T06:01:59.788Z,-3.38
2023-02-09T06:04:27.464Z,-3.41
2023-02-09T06:06:54.760Z,-3.41
2023-02-09T06:09:21.476Z,-3.59
2023-02-09T06:11:48.465Z,-3.56
2023-02-09T06:14:15.007Z,-3.57
2023-02-09T06:16:41.937Z,-3.57
2023-02-09T06:19:13.536Z,-3.60
2023-02-09T06:21:40.125Z,-3.50
2023-02-09T06:24:06.661Z,-3.46
2023-02-09T06:26:33.325Z,-3.45
2023-02-09T06:28:59.880Z,-3.64
2023-02-09T06:31:26.572Z,-3.72
2023-02-09T06:33:53.164Z,-3.67
2023-02-09T06:36:19.690Z,-3.66
2023-02-09T06:38:46.333Z,-3.49
2023-02-09T06:41:12.889Z,-2.58
2023-02-09T06:43:39.435Z,-2.86
2023-02-09T06:46:07.684Z,-3.09
2023-02-09T06:48:34.301Z,-3.16
2023-02-09T06:51:00.968Z,-3.37
2023-02-09T06:53:27.591Z,-3.47
2023-02-09T06:55:59.876Z,-3.55
2023-02-09T06:58:26.393Z,-3.58
2023-02-09T07:00:52.906Z,-3.64
2023-02-09T07:03:19.508Z,-3.88
2023-02-09T07:05:46.012Z,-3.73
2023-02-09T07:08:12.537Z,-3.68
2023-02-09T07:13:13.179Z,-3.73
2023-02-09T07:18:13.206Z,-3.81
2023-02-09T07:20:39.817Z,-3.68
2023-02-09T07:23:06.726Z,-3.68
2023-02-09T07:25:34.067Z,-3.80
2023-02-09T07:28:00.680Z,-3.78
2023-02-09T07:30:27.209Z,-3.70
2023-02-09T07:32:53.768Z,-3.75
2023-02-09T07:35:20.293Z,-3.63
2023-02-09T07:37:46.869Z,-3.51
2023-02-09T07:40:13.654Z,-3.46
2023-02-09T07:42:40.194Z,-3.48
2023-02-09T07:45:09.846Z,-3.51
2023-02-09T07:47:38.738Z,-3.38
2023-02-09T07:50:05.910Z,-3.20
2023-02-09T07:52:32.485Z,-3.11
2023-02-09T07:54:59.045Z,-3.27
2023-02-09T07:57:27.615Z,-3.08
2023-02-09T07:59:54.219Z,-3.05
2023-02-09T08:02:31.218Z,-3.01
2023-02-09T08:05:00.175Z,-2.91
2023-02-09T08:07:30.153Z,-2.79
2023-02-09T08:09:56.712Z,-2.72
2023-02-09T08:12:47.988Z,-2.59
2023-02-09T08:15:16.628Z,-2.48
2023-02-09T08:17:43.524Z,-2.50
2023-02-09T08:20:18.790Z,-2.47
2023-02-09T08:22:49.100Z,-2.36
2023-02-09T08:27:56.530Z,-2.11
2023-02-09T08:33:01.057Z,-1.90
2023-02-09T08:35:29.640Z,-1.95
2023-02-09T08:38:01.091Z,-1.85
2023-02-09T08:40:27.906Z,-1.60
2023-02-09T08:42:54.518Z,-1.49
2023-02-09T08:45:21.107Z,-1.39
2023-02-09T08:47:47.676Z,-1.36
2023-02-09T08:50:14.427Z,-1.31
2023-02-09T08:52:41.192Z,-1.22
2023-02-09T08:55:07.924Z,-0.82
2023-02-09T08:57:43.664Z,-0.57
2023-02-09T09:00:11.995Z,-0.62
2023-02-09T09:02:38.524Z,-0.46
2023-02-09T09:05:05.322Z,-0.50
2023-02-09T09:07:31.872Z,-0.19
2023-02-09T09:09:58.594Z,0.17
2023-02-09T09:12:25.280Z,0.30
2023-02-09T09:14:51.891Z,0.44
2023-02-09T09:19:52.634Z,0.57
2023-02-09T09:22:19.220Z,0.64
2023-02-09T09:24:45.730Z,0.60
2023-02-09T09:27:12.457Z,0.76
2023-02-09T09:29:40.221Z,0.72
2023-02-09T09:32:08.370Z,0.87
2023-02-09T09:34:35.048Z,1.26
2023-02-09T09:37:01.605Z,0.99
2023-02-09T09:39:28.361Z,1.10
2023-02-09T09:42:00.688Z,1.15
2023-02-09T09:44:35.190Z,1.58
2023-02-09T09:47:10.245Z,1.57
2023-02-09T09:49:37.690Z,1.86
2023-02-09T09:52:21.018Z,1.64
2023-02-09T09:54:47.619Z,1.76
2023-02-09T09:57:21.455Z,1.81
2023-02-09T09:59:48.305Z,2.07
2023-02-09T10:02:32.742Z,1.95
2023-02-09T10:05:26.948Z,2.32
2023-02-09T10:08:02.923Z,2.40
2023-02-09T10:10:46.197Z,2.21
2023-02-09T10:13:21.931Z,2.02
2023-02-09T10:15:53.354Z,1.91
2023-02-09T10:21:03.870Z,1.76
2023-02-09T10:23:42.879Z,1.69
2023-02-09T10:26:09.395Z,1.70
2023-02-09T10:28:40.577Z,1.66
2023-02-09T10:31:23.636Z,1.60
2023-02-09T10:33:56.042Z,1.57
2023-02-09T10:36:26.820Z,1.51
2023-02-09T10:39:04.291Z,1.62
2023-02-09T10:41:34.301Z,1.49
2023-02-09T10:44:01.257Z,1.56
2023-02-09T10:46:27.946Z,1.54
2023-02-09T10:48:54.521Z,1.44
2023-02-09T10:51:29.682Z,1.63
2023-02-09T10:54:00.776Z,1.80
2023-02-09T10:56:46.352Z,1.72
2023-02-09T10:59:19.093Z,1.81
2023-02-09T11:04:36.814Z,2.06
2023-02-09T11:07:34.990Z,2.21
2023-02-09T11:10:05.278Z,2.33
2023-02-09T11:12:32.200Z,2.74
2023-02-09T11:14:58.792Z,2.92
2023-02-09T11:17:36.534Z,2.86
2023-02-09T11:20:24.617Z,2.93
2023-02-09T11:23:02.052Z,3.65
2023-02-09T11:25:41.368Z,3.67
2023-02-09T11:28:26.002Z,3.83
2023-02-09T11:31:11.158Z,4.09
2023-02-09T11:34:03.861Z,4.24
2023-02-09T11:36:48.410Z,4.05
2023-02-09T11:42:42.574Z,4.58
2023-02-09T11:45:38.336Z,4.72
2023-02-09T11:48:18.818Z,4.73
2023-02-09T11:54:16.238Z,4.61
2023-02-09T11:56:47.396Z,4.64
2023-02-09T11:59:26.511Z,4.91
2023-02-09T12:02:09.213Z,4.90
2023-02-09T12:05:01.159Z,5.14
2023-02-09T12:08:05.020Z,5.22
2023-02-09T12:10:42.050Z,5.54
2023-02-09T12:13:27.398Z,5.58
2023-02-09T12:18:43.340Z,5.62
2023-02-09T12:21:10.133Z,5.51
2023-02-09T12:23:41.230Z,5.62
2023-02-09T12:26:16.582Z,5.80
2023-02-09T12:28:48.441Z,5.89
2023-02-09T12:31:19.858Z,6.00
2023-02-09T12:33:49.212Z,6.08
2023-02-09T12:36:16.216Z,6.05
2023-02-09T12:41:34.077Z,6.35
2023-02-09T12:44:09.430Z,6.10
2023-02-09T12:46:45.219Z,6.26
2023-02-09T12:49:12.108Z,6.13
2023-02-09T12:51:41.207Z,5.97
2023-02-09T12:57:15.458Z,6.17
2023-02-09T12:59:53.340Z,6.04
2023-02-09T13:02:30.310Z,5.96
2023-02-09T13:04:59.904Z,6.23
2023-02-09T13:07:32.414Z,6.19
2023-02-09T13:10:20.687Z,6.10
2023-02-09T13:13:03.203Z,6.35
2023-02-09T13:18:33.919Z,7.56
2023-02-09T13:21:18.164Z,8.08
2023-02-09T13:24:11.134Z,7.97
2023-02-09T13:26:54.538Z,7.57
2023-02-09T13:29:29.288Z,7.23
2023-02-09T13:32:03.849Z,6.97
2023-02-09T13:34:55.005Z,6.99
2023-02-09T13:37:49.254Z,6.67
2023-02-09T13:43:04.452Z,6.55
2023-02-09T13:45:31.231Z,6.51
2023-02-09T13:48:04.329Z,6.26
2023-02-09T13:50:32.125Z,6.49
2023-02-09T13:53:09.838Z,6.47
2023-02-09T13:55:39.994Z,6.04
2023-02-09T13:58:08.995Z,6.13
2023-02-09T14:00:44.447Z,6.14
2023-02-09T14:03:23.813Z,5.93
2023-02-09T14:05:59.618Z,5.84
2023-02-09T14:08:27.537Z,5.69
2023-02-09T14:11:08.182Z,5.84
2023-02-09T14:13:44.267Z,5.47
2023-02-09T14:16:15.938Z,5.62
2023-02-09T14:21:45.233Z,5.56
2023-02-09T14:24:23.338Z,5.52
2023-02-09T14:26:53.268Z,5.53
2023-02-09T14:29:38.309Z,5.59
2023-02-09T14:32:33.440Z,5.35
2023-02-09T14:37:54.312Z,5.26
2023-02-09T14:40:26.610Z,5.25
2023-02-09T14:46:01.662Z,5.25
2023-02-09T14:51:14.547Z,5.16
2023-02-09T14:53:43.526Z,5.05
2023-02-09T14:59:01.173Z,4.96
2023-02-09T15:01:28.029Z,5.14
2023-02-09T15:03:54.607Z,4.99
2023-02-09T15:06:21.501Z,4.97
2023-02-09T15:08:48.126Z,4.88
2023-02-09T15:11:42.777Z,4.82
2023-02-09T15:16:44.305Z,4.87
2023-02-09T15:21:52.642Z,4.86
2023-02-09T15:27:10.775Z,4.82
2023-02-09T15:29:37.332Z,4.51
2023-02-09T15:32:13.272Z,4.58
2023-02-09T15:34:39.846Z,4.62
2023-02-09T15:37:06.414Z,4.50
2023-02-09T15:39:33.658Z,4.31
2023-02-09T15:42:18.605Z,4.32
2023-02-09T15:50:21.005Z,3.99
2023-02-09T15:52:47.743Z,3.98
2023-02-09T15:55:18.892Z,3.88
2023-02-09T15:57:46.306Z,3.81
2023-02-09T16:00:28.023Z,3.84
2023-02-09T16:02:56.617Z,3.60
2023-02-09T16:05:27.293Z,3.52
2023-02-09T16:07:55.130Z,3.43
2023-02-09T16:10:27.002Z,3.26
2023-02-09T16:12:53.745Z,3.19
2023-02-09T16:15:23.400Z,3.04
2023-02-09T16:20:22.019Z,3.07
2023-02-09T16:22:49.999Z,2.97
2023-02-09T16:27:53.955Z,2.88
2023-02-09T16:30:29.545Z,2.86
2023-02-09T16:32:56.215Z,2.88
2023-02-09T16:35:24.453Z,2.69
2023-02-09T16:37:52.776Z,2.51
2023-02-09T16:40:26.367Z,2.32
2023-02-09T16:42:53.847Z,2.40
2023-02-09T16:45:22.342Z,2.15
2023-02-09T16:47:52.132Z,1.99
2023-02-09T16:50:23.499Z,1.81
2023-02-09T16:52:53.392Z,1.64
2023-02-09T16:55:40.611Z,1.37
2023-02-09T16:58:07.205Z,1.42
2023-02-09T17:00:37.355Z,1.39
2023-02-09T17:03:15.769Z,1.29
2023-02-09T17:05:47.097Z,1.29
2023-02-09T17:11:01.580Z,1.16
2023-02-09T17:16:04.958Z,1.06
2023-02-09T17:18:35.215Z,1.06
2023-02-09T17:21:09.704Z,1.19
2023-02-09T17:23:37.105Z,1.14
2023-02-09T17:26:04.038Z,1.17
2023-02-09T17:28:31.451Z,1.06
2023-02-09T17:31:00.961Z,0.86
2023-02-09T17:33:37.755Z,0.82
2023-02-09T17:36:25.231Z,0.80
2023-02-09T17:44:39.601Z,0.68
2023-02-09T17:47:15.517Z,0.53
2023-02-09T17:49:42.118Z,0.59
2023-02-09T17:52:17.447Z,0.68
2023-02-09T17:54:44.162Z,0.72
2023-02-09T17:57:16.473Z,0.98
2023-02-09T17:59:43.366Z,1.05
2023-02-09T18:02:16.173Z,0.92
2023-02-09T18:07:20.426Z,0.67
2023-02-09T18:09:47.297Z,1.10
2023-02-09T18:12:21.409Z,0.99
2023-02-09T18:14:48.259Z,1.23
2023-02-09T18:17:14.959Z,1.25
2023-02-09T18:19:41.493Z,1.16
2023-02-09T18:22:14.376Z,1.34
2023-02-09T18:24:41.872Z,1.33
2023-02-09T18:27:13.454Z,1.23
2023-02-09T18:29:40.005Z,1.20
2023-02-09T18:32:07.007Z,1.16
2023-02-09T18:34:35.707Z,1.11
2023-02-09T18:37:02.254Z,1.08
2023-02-09T18:39:30.716Z,1.05
2023-02-09T18:41:57.583Z,0.78
2023-02-09T18:44:29.209Z,0.60
2023-02-09T18:46:57.939Z,0.57
2023-02-09T18:49:24.746Z,0.61
2023-02-09T18:51:52.333Z,0.83
2023-02-09T18:54:19.237Z,0.84
2023-02-09T18:56:45.869Z,0.86
2023-02-09T18:59:12.589Z,0.94
2023-02-09T19:01:39.838Z,1.13
2023-02-09T19:04:06.442Z,1.01
2023-02-09T19:06:35.513Z,1.03
2023-02-09T19:11:34.371Z,0.93
2023-02-09T19:16:50.916Z,0.30
2023-02-09T19:19:19.124Z,0.26
2023-02-09T19:21:47.716Z,0.02
2023-02-09T19:24:14.280Z,-0.05
2023-02-09T19:26:40.876Z,-0.08
2023-02-09T19:29:07.444Z,-0.12
2023-02-09T19:31:34.042Z,-0.02
2023-02-09T19:34:00.702Z,0.06
2023-02-09T19:36:28.337Z,-0.06
2023-02-09T19:38:56.143Z,-0.17
2023-02-09T19:41:23.810Z,-0.33
2023-02-09T19:43:54.943Z,-0.05
2023-02-09T19:46:21.582Z,0.23
2023-02-09T19:48:48.423Z,0.33
2023-02-09T19:51:15.116Z,0.33
2023-02-09T19:53:41.823Z,0.39
2023-02-09T19:56:16.900Z,0.40
2023-02-09T19:58:44.613Z,0.33
2023-02-09T20:01:11.658Z,0.41
2023-02-09T20:06:16.879Z,0.43
2023-02-09T20:08:43.723Z,0.25
2023-02-09T20:11:13.492Z,0.12
2023-02-09T20:13:40.049Z,0.15
2023-02-09T20:16:19.072Z,0.03
2023-02-09T20:18:48.782Z,-0.08
2023-02-09T20:21:20.828Z,-0.01
2023-02-09T20:23:47.836Z,-0.07
2023-02-09T20:26:22.693Z,0.04
2023-02-09T20:28:49.665Z,-0.13
2023-02-09T20:31:21.312Z,0.04
2023-02-09T20:36:23.205Z,0.10
2023-02-09T20:38:51.008Z,-0.10
2023-02-09T20:41:18.710Z,-0.24
2023-02-09T20:44:04.285Z,-0.37
2023-02-09T20:46:51.286Z,-0.07
2023-02-09T20:49:18.198Z,0.13
2023-02-09T20:51:46.082Z,0.36
2023-02-09T20:54:12.969Z,-0.01
2023-02-09T20:56:39.508Z,-0.35
2023-02-09T20:59:06.949Z,-0.45
2023-02-09T21:01:33.584Z,-0.54
2023-02-09T21:04:00.459Z,-0.59
2023-02-09T21:06:27.401Z,-0.63
2023-02-09T21:08:53.969Z,-0.64
2023-02-09T21:11:20.569Z,-0.69
2023-02-09T21:13:47.366Z,-0.84
2023-02-09T21:16:20.196Z,-0.80
2023-02-09T21:18:46.878Z,-0.71
2023-02-09T21:21:16.110Z,-0.92
2023-02-09T21:23:43.863Z,-0.90
2023-02-09T21:26:14.048Z,-0.60
2023-02-09T21:28:40.756Z,-0.68
2023-02-09T21:31:12.000Z,-0.83
2023-02-09T21:33:38.692Z,-0.96
2023-02-09T21:36:06.477Z,-1.00
2023-02-09T21:38:34.431Z,-0.94
2023-02-09T21:41:00.992Z,-0.80
2023-02-09T21:43:27.593Z,-0.90
2023-02-09T21:45:54.153Z,-0.90
2023-02-09T21:50:55.025Z,-0.87
2023-02-09T21:53:21.765Z,-0.80
2023-02-09T21:55:48.296Z,-0.93
2023-02-09T21:58:14.873Z,-0.99
2023-02-09T22:00:41.368Z,-1.08
2023-02-09T22:03:07.943Z,-1.18
2023-02-09T22:05:34.519Z,-1.27
2023-02-09T22:08:01.130Z,-1.37
2023-02-09T22:10:27.633Z,-1.25
2023-02-09T22:12:54.173Z,-1.22
2023-02-09T22:15:20.804Z,-1.27
2023-02-09T22:17:48.447Z,-1.34
2023-02-09T22:22:47.285Z,-1.13
2023-02-09T22:25:13.874Z,-1.11
2023-02-09T22:27:40.396Z,-1.04
2023-02-09T22:30:07.413Z,-1.20
2023-02-09T22:32:33.961Z,-1.16
2023-02-09T22:35:00.598Z,-1.02
2023-02-09T22:37:27.140Z,-0.93
2023-02-09T22:39:53.663Z,-0.84
2023-02-09T22:42:20.267Z,-1.14
2023-02-09T22:44:47.764Z,-1.13
2023-02-09T22:47:14.314Z,-1.21
2023-02-09T22:49:41.718Z,-1.18
2023-02-09T22:52:08.851Z,-1.61
2023-02-09T22:54:35.488Z,-1.64
2023-02-09T22:57:02.260Z,0.92
2023-02-09T22:59:28.911Z,-0.65
2023-02-09T23:01:55.447Z,-1.12
2023-02-09T23:04:22.191Z,-1.38
2023-02-09T23:06:48.866Z,-1.18
2023-02-09T23:09:15.576Z,-1.43
2023-02-09T23:11:42.219Z,-1.05
2023-02-09T23:14:11.171Z,-1.06
2023-02-09T23:16:39.624Z,-1.16
2023-02-09T23:19:08.374Z,-1.29
2023-02-09T23:21:37.791Z,-1.41
2023-02-09T23:24:04.937Z,-1.40
2023-02-09T23:26:31.574Z,-1.67
2023-02-09T23:29:00.312Z,-1.69
2023-02-09T23:31:27.984Z,-1.61
2023-02-09T23:36:31.284Z,-1.25
2023-02-09T23:39:01.193Z,-1.57
2023-02-09T23:41:28.413Z,-1.40
2023-02-09T23:43:55.834Z,-1.50
2023-02-09T23:46:28.224Z,-1.79
2023-02-09T23:48:56.483Z,-1.88
2023-02-09T23:51:28.547Z,-1.43
2023-02-09T23:53:57.251Z,-1.21
2023-02-09T23:56:24.145Z,-1.12
2023-02-09T23:58:52.698Z,-1.31
